sensor_id;sensor_type;location;lat;lon;timestamp;P1;durP1;ratioP1;P2;durP2;ratioP2
19741;SDS011;10028;48.822;11.854;2023-05-07T00:02:21;1.60;;;1.60;;
19741;SDS011;10028;48.822;11.854;2023-05-07T00:04:49;1.60;;;1.60;;
19741;SDS011;10028;48.822;11.854;2023-05-07T00:07:16;1.97;;;1.87;;
19741;SDS011;10028;48.822;11.854;2023-05-07T00:09:43;1.50;;;1.50;;
19741;SDS011;10028;48.822;11.854;2023-05-07T00:12:11;1.60;;;1.60;;
19741;SDS011;10028;48.822;11.854;2023-05-07T00:14:38;3.00;;;2.90;;
19741;SDS011;10028;48.822;11.854;2023-05-07T00:17:05;1.57;;;1.57;;
19741;SDS011;10028;48.822;11.854;2023-05-07T00:19:32;1.53;;;1.53;;
19741;SDS011;10028;48.822;11.854;2023-05-07T00:22:00;2.50;;;2.40;;
19741;SDS011;10028;48.822;11.854;2023-05-07T00:24:27;2.00;;;2.00;;
19741;SDS011;10028;48.822;11.854;2023-05-07T00:26:55;1.63;;;1.63;;
19741;SDS011;10028;48.822;11.854;2023-05-07T00:29:24;1.77;;;1.77;;
19741;SDS011;10028;48.822;11.854;2023-05-07T00:31:51;1.60;;;1.60;;
19741;SDS011;10028;48.822;11.854;2023-05-07T00:34:21;1.73;;;1.73;;
19741;SDS011;10028;48.822;11.854;2023-05-07T00:36:48;1.90;;;1.90;;
19741;SDS011;10028;48.822;11.854;2023-05-07T00:39:15;1.63;;;1.63;;
19741;SDS011;10028;48.822;11.854;2023-05-07T00:41:43;3.40;;;3.20;;
19741;SDS011;10028;48.822;11.854;2023-05-07T00:44:10;1.70;;;1.70;;
19741;SDS011;10028;48.822;11.854;2023-05-07T00:46:37;1.83;;;1.83;;
19741;SDS011;10028;48.822;11.854;2023-05-07T00:49:04;1.80;;;1.80;;
19741;SDS011;10028;48.822;11.854;2023-05-07T00:51:32;1.60;;;1.60;;
19741;SDS011;10028;48.822;11.854;2023-05-07T00:54:00;1.50;;;1.50;;
19741;SDS011;10028;48.822;11.854;2023-05-07T00:56:28;1.70;;;1.70;;
19741;SDS011;10028;48.822;11.854;2023-05-07T00:58:56;1.70;;;1.70;;
19741;SDS011;10028;48.822;11.854;2023-05-07T01:01:23;1.63;;;1.63;;
19741;SDS011;10028;48.822;11.854;2023-05-07T01:03:50;1.70;;;1.70;;
19741;SDS011;10028;48.822;11.854;2023-05-07T01:06:18;4.73;;;4.40;;
19741;SDS011;10028;48.822;11.854;2023-05-07T01:08:46;2.90;;;2.70;;
19741;SDS011;10028;48.822;11.854;2023-05-07T01:11:16;1.90;;;1.90;;
19741;SDS011;10028;48.822;11.854;2023-05-07T01:13:46;1.70;;;1.70;;
19741;SDS011;10028;48.822;11.854;2023-05-07T01:16:14;1.70;;;1.70;;
19741;SDS011;10028;48.822;11.854;2023-05-07T01:18:41;1.53;;;1.53;;
19741;SDS011;10028;48.822;11.854;2023-05-07T01:21:08;1.70;;;1.70;;
19741;SDS011;10028;48.822;11.854;2023-05-07T01:23:38;1.67;;;1.67;;
19741;SDS011;10028;48.822;11.854;2023-05-07T01:26:06;1.70;;;1.70;;
19741;SDS011;10028;48.822;11.854;2023-05-07T01:28:33;1.60;;;1.60;;
19741;SDS011;10028;48.822;11.854;2023-05-07T01:31:01;1.77;;;1.77;;
19741;SDS011;10028;48.822;11.854;2023-05-07T01:33:30;1.50;;;1.50;;
19741;SDS011;10028;48.822;11.854;2023-05-07T01:36:00;2.37;;;2.27;;
19741;SDS011;10028;48.822;11.854;2023-05-07T01:38:30;1.83;;;1.83;;
19741;SDS011;10028;48.822;11.854;2023-05-07T01:40:57;1.70;;;1.70;;
19741;SDS011;10028;48.822;11.854;2023-05-07T01:43:25;2.20;;;2.10;;
19741;SDS011;10028;48.822;11.854;2023-05-07T01:45:52;2.00;;;2.00;;
19741;SDS011;10028;48.822;11.854;2023-05-07T01:48:19;2.00;;;2.00;;
19741;SDS011;10028;48.822;11.854;2023-05-07T01:50:47;1.63;;;1.63;;
19741;SDS011;10028;48.822;11.854;2023-05-07T01:53:14;1.93;;;1.93;;
19741;SDS011;10028;48.822;11.854;2023-05-07T01:55:41;2.63;;;2.53;;
19741;SDS011;10028;48.822;11.854;2023-05-07T01:58:09;2.17;;;2.13;;
19741;SDS011;10028;48.822;11.854;2023-05-07T02:00:36;1.80;;;1.80;;
19741;SDS011;10028;48.822;11.854;2023-05-07T02:03:04;1.80;;;1.80;;
19741;SDS011;10028;48.822;11.854;2023-05-07T02:05:31;2.53;;;2.43;;
19741;SDS011;10028;48.822;11.854;2023-05-07T02:07:58;1.67;;;1.67;;
19741;SDS011;10028;48.822;11.854;2023-05-07T02:10:25;1.70;;;1.70;;
19741;SDS011;10028;48.822;11.854;2023-05-07T02:12:52;2.07;;;2.07;;
19741;SDS011;10028;48.822;11.854;2023-05-07T02:15:20;1.80;;;1.80;;
19741;SDS011;10028;48.822;11.854;2023-05-07T02:18:00;1.83;;;1.80;;
19741;SDS011;10028;48.822;11.854;2023-05-07T02:20:31;1.80;;;1.80;;
19741;SDS011;10028;48.822;11.854;2023-05-07T02:22:58;1.70;;;1.70;;
19741;SDS011;10028;48.822;11.854;2023-05-07T02:25:26;1.97;;;1.97;;
19741;SDS011;10028;48.822;11.854;2023-05-07T02:27:53;1.90;;;1.90;;
19741;SDS011;10028;48.822;11.854;2023-05-07T02:30:21;2.00;;;2.00;;
19741;SDS011;10028;48.822;11.854;2023-05-07T02:32:48;1.80;;;1.80;;
19741;SDS011;10028;48.822;11.854;2023-05-07T02:35:16;1.80;;;1.80;;
19741;SDS011;10028;48.822;11.854;2023-05-07T02:37:43;1.70;;;1.70;;
19741;SDS011;10028;48.822;11.854;2023-05-07T02:40:11;1.60;;;1.60;;
19741;SDS011;10028;48.822;11.854;2023-05-07T02:42:38;2.47;;;2.37;;
19741;SDS011;10028;48.822;11.854;2023-05-07T02:45:06;1.97;;;1.97;;
19741;SDS011;10028;48.822;11.854;2023-05-07T02:47:33;2.20;;;2.10;;
19741;SDS011;10028;48.822;11.854;2023-05-07T02:50:01;2.37;;;2.30;;
19741;SDS011;10028;48.822;11.854;2023-05-07T02:52:28;2.00;;;2.00;;
19741;SDS011;10028;48.822;11.854;2023-05-07T02:54:55;1.90;;;1.90;;
19741;SDS011;10028;48.822;11.854;2023-05-07T02:57:22;1.90;;;1.90;;
19741;SDS011;10028;48.822;11.854;2023-05-07T02:59:49;1.70;;;1.70;;
19741;SDS011;10028;48.822;11.854;2023-05-07T03:02:18;2.07;;;2.07;;
19741;SDS011;10028;48.822;11.854;2023-05-07T03:04:46;1.93;;;1.93;;
19741;SDS011;10028;48.822;11.854;2023-05-07T03:07:13;2.50;;;2.40;;
19741;SDS011;10028;48.822;11.854;2023-05-07T03:09:40;2.33;;;2.27;;
19741;SDS011;10028;48.822;11.854;2023-05-07T03:12:08;1.87;;;1.87;;
19741;SDS011;10028;48.822;11.854;2023-05-07T03:14:35;1.90;;;1.90;;
19741;SDS011;10028;48.822;11.854;2023-05-07T03:17:02;1.80;;;1.80;;
19741;SDS011;10028;48.822;11.854;2023-05-07T03:19:29;1.80;;;1.80;;
19741;SDS011;10028;48.822;11.854;2023-05-07T03:21:57;2.83;;;2.73;;
19741;SDS011;10028;48.822;11.854;2023-05-07T03:24:24;1.80;;;1.80;;
19741;SDS011;10028;48.822;11.854;2023-05-07T03:26:51;2.20;;;2.20;;
19741;SDS011;10028;48.822;11.854;2023-05-07T03:29:18;1.70;;;1.70;;
19741;SDS011;10028;48.822;11.854;2023-05-07T03:31:46;1.70;;;1.70;;
19741;SDS011;10028;48.822;11.854;2023-05-07T03:34:13;1.60;;;1.60;;
19741;SDS011;10028;48.822;11.854;2023-05-07T03:36:41;1.90;;;1.90;;
19741;SDS011;10028;48.822;11.854;2023-05-07T03:39:08;1.90;;;1.90;;
19741;SDS011;10028;48.822;11.854;2023-05-07T03:41:35;1.87;;;1.87;;
19741;SDS011;10028;48.822;11.854;2023-05-07T03:44:02;2.10;;;2.10;;
19741;SDS011;10028;48.822;11.854;2023-05-07T03:46:29;2.10;;;2.10;;
19741;SDS011;10028;48.822;11.854;2023-05-07T03:48:59;1.87;;;1.87;;
19741;SDS011;10028;48.822;11.854;2023-05-07T03:51:26;1.90;;;1.90;;
19741;SDS011;10028;48.822;11.854;2023-05-07T03:53:54;1.80;;;1.80;;
19741;SDS011;10028;48.822;11.854;2023-05-07T03:56:23;1.80;;;1.80;;
19741;SDS011;10028;48.822;11.854;2023-05-07T03:58:53;2.00;;;2.00;;
19741;SDS011;10028;48.822;11.854;2023-05-07T04:01:20;2.10;;;2.10;;
19741;SDS011;10028;48.822;11.854;2023-05-07T04:03:47;1.93;;;1.93;;
19741;SDS011;10028;48.822;11.854;2023-05-07T04:06:15;1.80;;;1.80;;
19741;SDS011;10028;48.822;11.854;2023-05-07T04:08:43;2.07;;;2.07;;
19741;SDS011;10028;48.822;11.854;2023-05-07T04:11:10;2.10;;;2.10;;
19741;SDS011;10028;48.822;11.854;2023-05-07T04:13:38;2.40;;;2.30;;
19741;SDS011;10028;48.822;11.854;2023-05-07T04:16:05;2.37;;;2.27;;
19741;SDS011;10028;48.822;11.854;2023-05-07T04:18:32;2.10;;;2.10;;
19741;SDS011;10028;48.822;11.854;2023-05-07T04:20:59;1.93;;;1.93;;
19741;SDS011;10028;48.822;11.854;2023-05-07T04:23:26;1.90;;;1.90;;
19741;SDS011;10028;48.822;11.854;2023-05-07T04:25:53;1.90;;;1.90;;
19741;SDS011;10028;48.822;11.854;2023-05-07T04:28:21;2.20;;;2.10;;
19741;SDS011;10028;48.822;11.854;2023-05-07T04:30:48;2.10;;;2.10;;
19741;SDS011;10028;48.822;11.854;2023-05-07T04:33:15;2.43;;;2.33;;
19741;SDS011;10028;48.822;11.854;2023-05-07T04:35:43;2.10;;;2.10;;
19741;SDS011;10028;48.822;11.854;2023-05-07T04:38:10;2.57;;;2.47;;
19741;SDS011;10028;48.822;11.854;2023-05-07T04:40:37;1.90;;;1.90;;
19741;SDS011;10028;48.822;11.854;2023-05-07T04:43:05;2.43;;;2.33;;
19741;SDS011;10028;48.822;11.854;2023-05-07T04:45:33;6.17;;;3.70;;
19741;SDS011;10028;48.822;11.854;2023-05-07T04:48:01;1.93;;;1.93;;
19741;SDS011;10028;48.822;11.854;2023-05-07T04:50:28;2.13;;;2.13;;
19741;SDS011;10028;48.822;11.854;2023-05-07T04:52:56;1.83;;;1.83;;
19741;SDS011;10028;48.822;11.854;2023-05-07T04:55:23;1.80;;;1.80;;
19741;SDS011;10028;48.822;11.854;2023-05-07T04:57:51;3.03;;;2.93;;
19741;SDS011;10028;48.822;11.854;2023-05-07T05:00:18;2.07;;;2.07;;
19741;SDS011;10028;48.822;11.854;2023-05-07T05:02:46;1.70;;;1.70;;
19741;SDS011;10028;48.822;11.854;2023-05-07T05:05:13;1.80;;;1.80;;
19741;SDS011;10028;48.822;11.854;2023-05-07T05:07:40;2.07;;;2.07;;
19741;SDS011;10028;48.822;11.854;2023-05-07T05:10:07;2.30;;;2.20;;
19741;SDS011;10028;48.822;11.854;2023-05-07T05:12:35;1.70;;;1.70;;
19741;SDS011;10028;48.822;11.854;2023-05-07T05:15:02;2.07;;;2.07;;
19741;SDS011;10028;48.822;11.854;2023-05-07T05:17:30;2.00;;;2.00;;
19741;SDS011;10028;48.822;11.854;2023-05-07T05:19:57;1.80;;;1.80;;
19741;SDS011;10028;48.822;11.854;2023-05-07T05:22:24;3.63;;;3.37;;
19741;SDS011;10028;48.822;11.854;2023-05-07T05:24:52;1.53;;;1.53;;
19741;SDS011;10028;48.822;11.854;2023-05-07T05:27:19;1.93;;;1.93;;
19741;SDS011;10028;48.822;11.854;2023-05-07T05:29:46;1.80;;;1.80;;
19741;SDS011;10028;48.822;11.854;2023-05-07T05:32:13;1.77;;;1.77;;
19741;SDS011;10028;48.822;11.854;2023-05-07T05:34:40;2.07;;;2.07;;
19741;SDS011;10028;48.822;11.854;2023-05-07T05:37:07;1.70;;;1.70;;
19741;SDS011;10028;48.822;11.854;2023-05-07T05:39:34;1.60;;;1.60;;
19741;SDS011;10028;48.822;11.854;2023-05-07T05:42:02;1.70;;;1.70;;
19741;SDS011;10028;48.822;11.854;2023-05-07T05:44:29;2.40;;;2.30;;
19741;SDS011;10028;48.822;11.854;2023-05-07T05:46:56;1.80;;;1.80;;
19741;SDS011;10028;48.822;11.854;2023-05-07T05:49:25;2.70;;;2.60;;
19741;SDS011;10028;48.822;11.854;2023-05-07T05:51:52;1.97;;;1.97;;
19741;SDS011;10028;48.822;11.854;2023-05-07T05:54:19;2.10;;;2.03;;
19741;SDS011;10028;48.822;11.854;2023-05-07T05:56:47;1.67;;;1.67;;
19741;SDS011;10028;48.822;11.854;2023-05-07T05:59:14;2.47;;;2.37;;
19741;SDS011;10028;48.822;11.854;2023-05-07T06:01:41;1.90;;;1.90;;
19741;SDS011;10028;48.822;11.854;2023-05-07T06:04:09;2.27;;;2.17;;
19741;SDS011;10028;48.822;11.854;2023-05-07T06:06:36;1.80;;;1.80;;
19741;SDS011;10028;48.822;11.854;2023-05-07T06:09:03;1.87;;;1.87;;
19741;SDS011;10028;48.822;11.854;2023-05-07T06:11:31;1.93;;;1.93;;
19741;SDS011;10028;48.822;11.854;2023-05-07T06:13:59;1.50;;;1.50;;
19741;SDS011;10028;48.822;11.854;2023-05-07T06:16:27;2.10;;;2.00;;
19741;SDS011;10028;48.822;11.854;2023-05-07T06:18:54;1.50;;;1.50;;
19741;SDS011;10028;48.822;11.854;2023-05-07T06:21:21;1.60;;;1.60;;
19741;SDS011;10028;48.822;11.854;2023-05-07T06:23:49;1.70;;;1.70;;
19741;SDS011;10028;48.822;11.854;2023-05-07T06:26:18;1.90;;;1.90;;
19741;SDS011;10028;48.822;11.854;2023-05-07T06:28:46;1.70;;;1.70;;
19741;SDS011;10028;48.822;11.854;2023-05-07T06:31:17;1.50;;;1.50;;
19741;SDS011;10028;48.822;11.854;2023-05-07T06:33:49;1.30;;;1.30;;
19741;SDS011;10028;48.822;11.854;2023-05-07T06:36:16;1.60;;;1.60;;
19741;SDS011;10028;48.822;11.854;2023-05-07T06:38:43;1.70;;;1.70;;
19741;SDS011;10028;48.822;11.854;2023-05-07T06:41:11;1.20;;;1.20;;
19741;SDS011;10028;48.822;11.854;2023-05-07T06:43:38;1.67;;;1.67;;
19741;SDS011;10028;48.822;11.854;2023-05-07T06:46:07;2.50;;;2.30;;
19741;SDS011;10028;48.822;11.854;2023-05-07T06:48:35;2.23;;;2.13;;
19741;SDS011;10028;48.822;11.854;2023-05-07T06:51:02;2.93;;;2.00;;
19741;SDS011;10028;48.822;11.854;2023-05-07T06:53:29;1.60;;;1.60;;
19741;SDS011;10028;48.822;11.854;2023-05-07T06:55:56;1.50;;;1.50;;
19741;SDS011;10028;48.822;11.854;2023-05-07T06:58:24;1.23;;;1.23;;
19741;SDS011;10028;48.822;11.854;2023-05-07T07:00:51;2.10;;;2.10;;
19741;SDS011;10028;48.822;11.854;2023-05-07T07:03:18;2.27;;;2.17;;
19741;SDS011;10028;48.822;11.854;2023-05-07T07:05:46;3.80;;;2.60;;
19741;SDS011;10028;48.822;11.854;2023-05-07T07:08:13;1.87;;;1.87;;
19741;SDS011;10028;48.822;11.854;2023-05-07T07:10:40;1.30;;;1.30;;
19741;SDS011;10028;48.822;11.854;2023-05-07T07:13:08;1.60;;;1.60;;
19741;SDS011;10028;48.822;11.854;2023-05-07T07:15:35;1.83;;;1.83;;
19741;SDS011;10028;48.822;11.854;2023-05-07T07:18:05;1.73;;;1.73;;
19741;SDS011;10028;48.822;11.854;2023-05-07T07:20:33;1.50;;;1.50;;
19741;SDS011;10028;48.822;11.854;2023-05-07T07:23:00;1.43;;;1.43;;
19741;SDS011;10028;48.822;11.854;2023-05-07T07:25:27;1.83;;;1.83;;
19741;SDS011;10028;48.822;11.854;2023-05-07T07:27:55;1.80;;;1.80;;
19741;SDS011;10028;48.822;11.854;2023-05-07T07:30:21;1.47;;;1.47;;
19741;SDS011;10028;48.822;11.854;2023-05-07T07:32:49;3.27;;;3.07;;
19741;SDS011;10028;48.822;11.854;2023-05-07T07:35:16;1.50;;;1.50;;
19741;SDS011;10028;48.822;11.854;2023-05-07T07:37:43;1.63;;;1.60;;
19741;SDS011;10028;48.822;11.854;2023-05-07T07:40:11;1.50;;;1.50;;
19741;SDS011;10028;48.822;11.854;2023-05-07T07:42:38;1.60;;;1.60;;
19741;SDS011;10028;48.822;11.854;2023-05-07T07:45:06;1.50;;;1.50;;
19741;SDS011;10028;48.822;11.854;2023-05-07T07:47:33;1.70;;;1.70;;
19741;SDS011;10028;48.822;11.854;2023-05-07T07:50:01;1.63;;;1.63;;
19741;SDS011;10028;48.822;11.854;2023-05-07T07:52:28;2.03;;;1.93;;
19741;SDS011;10028;48.822;11.854;2023-05-07T07:54:55;1.87;;;1.87;;
19741;SDS011;10028;48.822;11.854;2023-05-07T07:57:23;1.90;;;1.80;;
19741;SDS011;10028;48.822;11.854;2023-05-07T07:59:50;1.63;;;1.63;;
19741;SDS011;10028;48.822;11.854;2023-05-07T08:02:17;1.67;;;1.67;;
19741;SDS011;10028;48.822;11.854;2023-05-07T08:04:44;1.47;;;1.47;;
19741;SDS011;10028;48.822;11.854;2023-05-07T08:07:12;1.40;;;1.40;;
19741;SDS011;10028;48.822;11.854;2023-05-07T08:09:39;1.53;;;1.53;;
19741;SDS011;10028;48.822;11.854;2023-05-07T08:12:07;1.10;;;1.10;;
19741;SDS011;10028;48.822;11.854;2023-05-07T08:14:34;1.40;;;1.40;;
19741;SDS011;10028;48.822;11.854;2023-05-07T08:17:02;2.13;;;2.03;;
19741;SDS011;10028;48.822;11.854;2023-05-07T08:19:30;1.60;;;1.60;;
19741;SDS011;10028;48.822;11.854;2023-05-07T08:21:57;1.30;;;1.30;;
19741;SDS011;10028;48.822;11.854;2023-05-07T08:24:24;1.70;;;1.70;;
19741;SDS011;10028;48.822;11.854;2023-05-07T08:26:52;1.50;;;1.50;;
19741;SDS011;10028;48.822;11.854;2023-05-07T08:29:19;1.27;;;1.27;;
19741;SDS011;10028;48.822;11.854;2023-05-07T08:31:46;1.50;;;1.50;;
19741;SDS011;10028;48.822;11.854;2023-05-07T08:34:13;1.40;;;1.40;;
19741;SDS011;10028;48.822;11.854;2023-05-07T08:36:40;1.60;;;1.60;;
19741;SDS011;10028;48.822;11.854;2023-05-07T08:39:08;1.53;;;1.53;;
19741;SDS011;10028;48.822;11.854;2023-05-07T08:41:35;1.63;;;1.63;;
19741;SDS011;10028;48.822;11.854;2023-05-07T08:44:03;1.80;;;1.80;;
19741;SDS011;10028;48.822;11.854;2023-05-07T08:46:37;1.27;;;1.27;;
19741;SDS011;10028;48.822;11.854;2023-05-07T08:49:04;1.67;;;1.67;;
19741;SDS011;10028;48.822;11.854;2023-05-07T08:51:32;1.50;;;1.50;;
19741;SDS011;10028;48.822;11.854;2023-05-07T08:53:59;1.50;;;1.50;;
19741;SDS011;10028;48.822;11.854;2023-05-07T08:56:27;1.77;;;1.77;;
19741;SDS011;10028;48.822;11.854;2023-05-07T08:58:55;1.57;;;1.57;;
19741;SDS011;10028;48.822;11.854;2023-05-07T09:01:24;1.40;;;1.40;;
19741;SDS011;10028;48.822;11.854;2023-05-07T09:03:52;1.27;;;1.27;;
19741;SDS011;10028;48.822;11.854;2023-05-07T09:06:19;1.20;;;1.20;;
19741;SDS011;10028;48.822;11.854;2023-05-07T09:08:50;2.53;;;2.00;;
19741;SDS011;10028;48.822;11.854;2023-05-07T09:11:21;1.37;;;1.37;;
19741;SDS011;10028;48.822;11.854;2023-05-07T09:13:55;1.40;;;1.40;;
19741;SDS011;10028;48.822;11.854;2023-05-07T09:16:24;1.50;;;1.50;;
19741;SDS011;10028;48.822;11.854;2023-05-07T09:18:52;1.30;;;1.30;;
19741;SDS011;10028;48.822;11.854;2023-05-07T09:21:20;0.93;;;0.93;;
19741;SDS011;10028;48.822;11.854;2023-05-07T09:23:52;2.07;;;1.97;;
19741;SDS011;10028;48.822;11.854;2023-05-07T09:26:23;1.40;;;1.40;;
19741;SDS011;10028;48.822;11.854;2023-05-07T09:28:51;1.80;;;1.70;;
19741;SDS011;10028;48.822;11.854;2023-05-07T09:31:18;2.10;;;1.63;;
19741;SDS011;10028;48.822;11.854;2023-05-07T09:33:47;1.33;;;1.33;;
19741;SDS011;10028;48.822;11.854;2023-05-07T09:36:15;1.50;;;1.50;;
19741;SDS011;10028;48.822;11.854;2023-05-07T09:38:42;1.90;;;1.80;;
19741;SDS011;10028;48.822;11.854;2023-05-07T09:41:10;1.60;;;1.60;;
19741;SDS011;10028;48.822;11.854;2023-05-07T09:43:39;1.20;;;1.20;;
19741;SDS011;10028;48.822;11.854;2023-05-07T09:46:07;1.27;;;1.27;;
19741;SDS011;10028;48.822;11.854;2023-05-07T09:48:35;1.27;;;1.27;;
19741;SDS011;10028;48.822;11.854;2023-05-07T09:51:28;1.17;;;1.17;;
19741;SDS011;10028;48.822;11.854;2023-05-07T09:53:56;1.40;;;1.40;;
19741;SDS011;10028;48.822;11.854;2023-05-07T09:56:23;1.20;;;1.20;;
19741;SDS011;10028;48.822;11.854;2023-05-07T09:58:52;1.30;;;1.30;;
19741;SDS011;10028;48.822;11.854;2023-05-07T10:01:22;1.40;;;1.40;;
19741;SDS011;10028;48.822;11.854;2023-05-07T10:03:51;1.10;;;1.10;;
19741;SDS011;10028;48.822;11.854;2023-05-07T10:06:20;1.80;;;1.73;;
19741;SDS011;10028;48.822;11.854;2023-05-07T10:08:48;1.30;;;1.30;;
19741;SDS011;10028;48.822;11.854;2023-05-07T10:11:17;1.30;;;1.30;;
19741;SDS011;10028;48.822;11.854;2023-05-07T10:13:44;1.10;;;1.10;;
19741;SDS011;10028;48.822;11.854;2023-05-07T10:16:14;1.23;;;1.23;;
19741;SDS011;10028;48.822;11.854;2023-05-07T10:18:41;1.10;;;1.10;;
19741;SDS011;10028;48.822;11.854;2023-05-07T10:21:19;1.00;;;1.00;;
19741;SDS011;10028;48.822;11.854;2023-05-07T10:23:51;0.93;;;0.93;;
19741;SDS011;10028;48.822;11.854;2023-05-07T10:26:42;2.33;;;2.23;;
19741;SDS011;10028;48.822;11.854;2023-05-07T10:34:37;1.03;;;1.03;;
19741;SDS011;10028;48.822;11.854;2023-05-07T10:37:08;1.30;;;1.30;;
19741;SDS011;10028;48.822;11.854;2023-05-07T10:39:36;1.17;;;1.17;;
19741;SDS011;10028;48.822;11.854;2023-05-07T10:42:10;1.17;;;1.17;;
19741;SDS011;10028;48.822;11.854;2023-05-07T10:44:38;1.27;;;1.27;;
19741;SDS011;10028;48.822;11.854;2023-05-07T10:47:12;1.23;;;1.23;;
19741;SDS011;10028;48.822;11.854;2023-05-07T10:52:18;2.07;;;2.00;;
19741;SDS011;10028;48.822;11.854;2023-05-07T10:54:46;1.40;;;1.40;;
19741;SDS011;10028;48.822;11.854;2023-05-07T11:00:03;2.13;;;2.03;;
19741;SDS011;10028;48.822;11.854;2023-05-07T11:03:04;1.13;;;1.13;;
19741;SDS011;10028;48.822;11.854;2023-05-07T11:05:33;0.90;;;0.90;;
19741;SDS011;10028;48.822;11.854;2023-05-07T11:08:04;1.27;;;1.27;;
19741;SDS011;10028;48.822;11.854;2023-05-07T11:10:47;1.10;;;1.10;;
19741;SDS011;10028;48.822;11.854;2023-05-07T11:13:41;1.20;;;1.20;;
19741;SDS011;10028;48.822;11.854;2023-05-07T11:16:19;0.97;;;0.97;;
19741;SDS011;10028;48.822;11.854;2023-05-07T11:18:52;1.23;;;1.23;;
19741;SDS011;10028;48.822;11.854;2023-05-07T11:21:53;1.00;;;1.00;;
19741;SDS011;10028;48.822;11.854;2023-05-07T11:24:14;1.10;;;1.10;;
19741;SDS011;10028;48.822;11.854;2023-05-07T11:29:14;0.90;;;0.90;;
19741;SDS011;10028;48.822;11.854;2023-05-07T11:31:54;0.80;;;0.80;;
19741;SDS011;10028;48.822;11.854;2023-05-07T11:34:22;1.00;;;1.00;;
19741;SDS011;10028;48.822;11.854;2023-05-07T11:36:50;1.27;;;1.27;;
19741;SDS011;10028;48.822;11.854;2023-05-07T11:39:27;0.63;;;0.63;;
19741;SDS011;10028;48.822;11.854;2023-05-07T11:42:01;1.00;;;1.00;;
19741;SDS011;10028;48.822;11.854;2023-05-07T11:44:41;0.97;;;0.97;;
19741;SDS011;10028;48.822;11.854;2023-05-07T11:47:09;1.00;;;1.00;;
19741;SDS011;10028;48.822;11.854;2023-05-07T11:49:37;0.80;;;0.80;;
19741;SDS011;10028;48.822;11.854;2023-05-07T11:52:04;1.97;;;1.87;;
19741;SDS011;10028;48.822;11.854;2023-05-07T11:54:35;1.10;;;1.10;;
19741;SDS011;10028;48.822;11.854;2023-05-07T11:57:03;0.90;;;0.90;;
19741;SDS011;10028;48.822;11.854;2023-05-07T11:59:37;1.10;;;1.10;;
19741;SDS011;10028;48.822;11.854;2023-05-07T12:02:07;1.20;;;1.20;;
19741;SDS011;10028;48.822;11.854;2023-05-07T12:04:34;0.90;;;0.90;;
19741;SDS011;10028;48.822;11.854;2023-05-07T12:07:02;1.20;;;1.20;;
19741;SDS011;10028;48.822;11.854;2023-05-07T12:09:29;1.23;;;1.23;;
19741;SDS011;10028;48.822;11.854;2023-05-07T12:11:56;1.00;;;1.00;;
19741;SDS011;10028;48.822;11.854;2023-05-07T12:14:26;1.00;;;1.00;;
19741;SDS011;10028;48.822;11.854;2023-05-07T12:16:55;1.00;;;1.00;;
19741;SDS011;10028;48.822;11.854;2023-05-07T12:19:22;1.33;;;1.33;;
19741;SDS011;10028;48.822;11.854;2023-05-07T12:21:49;1.03;;;1.03;;
19741;SDS011;10028;48.822;11.854;2023-05-07T12:24:17;0.97;;;0.97;;
19741;SDS011;10028;48.822;11.854;2023-05-07T12:26:47;1.00;;;1.00;;
19741;SDS011;10028;48.822;11.854;2023-05-07T12:29:14;1.10;;;1.10;;
19741;SDS011;10028;48.822;11.854;2023-05-07T12:31:42;0.90;;;0.90;;
19741;SDS011;10028;48.822;11.854;2023-05-07T12:34:13;0.83;;;0.83;;
19741;SDS011;10028;48.822;11.854;2023-05-07T12:36:39;1.20;;;1.20;;
19741;SDS011;10028;48.822;11.854;2023-05-07T12:39:07;0.93;;;0.93;;
19741;SDS011;10028;48.822;11.854;2023-05-07T12:44:31;1.10;;;1.10;;
19741;SDS011;10028;48.822;11.854;2023-05-07T12:47:02;1.00;;;1.00;;
19741;SDS011;10028;48.822;11.854;2023-05-07T12:49:29;1.07;;;1.07;;
19741;SDS011;10028;48.822;11.854;2023-05-07T12:51:56;0.80;;;0.80;;
19741;SDS011;10028;48.822;11.854;2023-05-07T12:54:34;1.00;;;1.00;;
19741;SDS011;10028;48.822;11.854;2023-05-07T12:57:04;0.90;;;0.90;;
19741;SDS011;10028;48.822;11.854;2023-05-07T12:59:33;1.03;;;1.03;;
19741;SDS011;10028;48.822;11.854;2023-05-07T13:02:02;0.90;;;0.90;;
19741;SDS011;10028;48.822;11.854;2023-05-07T13:04:29;1.20;;;1.20;;
19741;SDS011;10028;48.822;11.854;2023-05-07T13:06:57;1.00;;;1.00;;
19741;SDS011;10028;48.822;11.854;2023-05-07T13:09:24;1.00;;;1.00;;
19741;SDS011;10028;48.822;11.854;2023-05-07T13:11:52;1.00;;;1.00;;
19741;SDS011;10028;48.822;11.854;2023-05-07T13:14:19;0.80;;;0.80;;
19741;SDS011;10028;48.822;11.854;2023-05-07T13:16:47;1.00;;;1.00;;
19741;SDS011;10028;48.822;11.854;2023-05-07T13:19:15;1.37;;;1.37;;
19741;SDS011;10028;48.822;11.854;2023-05-07T13:21:43;1.33;;;1.33;;
19741;SDS011;10028;48.822;11.854;2023-05-07T13:24:10;0.90;;;0.90;;
19741;SDS011;10028;48.822;11.854;2023-05-07T13:26:38;0.80;;;0.80;;
19741;SDS011;10028;48.822;11.854;2023-05-07T13:29:05;1.50;;;1.50;;
19741;SDS011;10028;48.822;11.854;2023-05-07T13:31:32;1.10;;;1.10;;
19741;SDS011;10028;48.822;11.854;2023-05-07T13:34:00;1.20;;;1.20;;
19741;SDS011;10028;48.822;11.854;2023-05-07T13:36:27;1.17;;;1.17;;
19741;SDS011;10028;48.822;11.854;2023-05-07T13:38:54;1.03;;;1.03;;
19741;SDS011;10028;48.822;11.854;2023-05-07T13:41:21;0.93;;;0.93;;
19741;SDS011;10028;48.822;11.854;2023-05-07T13:43:49;0.77;;;0.77;;
19741;SDS011;10028;48.822;11.854;2023-05-07T13:46:16;1.10;;;1.10;;
19741;SDS011;10028;48.822;11.854;2023-05-07T13:48:43;0.90;;;0.90;;
19741;SDS011;10028;48.822;11.854;2023-05-07T13:51:11;0.90;;;0.90;;
19741;SDS011;10028;48.822;11.854;2023-05-07T13:53:38;0.80;;;0.80;;
19741;SDS011;10028;48.822;11.854;2023-05-07T13:56:05;0.90;;;0.90;;
19741;SDS011;10028;48.822;11.854;2023-05-07T13:58:33;1.03;;;1.03;;
19741;SDS011;10028;48.822;11.854;2023-05-07T14:01:05;1.03;;;1.03;;
19741;SDS011;10028;48.822;11.854;2023-05-07T14:03:32;0.80;;;0.80;;
19741;SDS011;10028;48.822;11.854;2023-05-07T14:06:00;0.90;;;0.90;;
19741;SDS011;10028;48.822;11.854;2023-05-07T14:08:27;1.00;;;1.00;;
19741;SDS011;10028;48.822;11.854;2023-05-07T14:10:57;0.87;;;0.87;;
19741;SDS011;10028;48.822;11.854;2023-05-07T14:13:24;1.00;;;1.00;;
19741;SDS011;10028;48.822;11.854;2023-05-07T14:15:52;0.93;;;0.93;;
19741;SDS011;10028;48.822;11.854;2023-05-07T14:18:19;1.00;;;1.00;;
19741;SDS011;10028;48.822;11.854;2023-05-07T14:20:46;1.43;;;1.43;;
19741;SDS011;10028;48.822;11.854;2023-05-07T14:23:14;0.93;;;0.93;;
19741;SDS011;10028;48.822;11.854;2023-05-07T14:25:43;0.90;;;0.90;;
19741;SDS011;10028;48.822;11.854;2023-05-07T14:28:12;0.90;;;0.90;;
19741;SDS011;10028;48.822;11.854;2023-05-07T14:30:39;1.00;;;1.00;;
19741;SDS011;10028;48.822;11.854;2023-05-07T14:33:06;0.70;;;0.70;;
19741;SDS011;10028;48.822;11.854;2023-05-07T14:35:34;0.80;;;0.80;;
19741;SDS011;10028;48.822;11.854;2023-05-07T14:38:01;1.07;;;1.07;;
19741;SDS011;10028;48.822;11.854;2023-05-07T14:40:28;0.90;;;0.90;;
19741;SDS011;10028;48.822;11.854;2023-05-07T14:42:55;1.30;;;1.30;;
19741;SDS011;10028;48.822;11.854;2023-05-07T14:45:23;0.93;;;0.93;;
19741;SDS011;10028;48.822;11.854;2023-05-07T14:47:51;0.90;;;0.90;;
19741;SDS011;10028;48.822;11.854;2023-05-07T14:50:18;1.10;;;1.10;;
19741;SDS011;10028;48.822;11.854;2023-05-07T14:52:46;0.90;;;0.90;;
19741;SDS011;10028;48.822;11.854;2023-05-07T14:55:13;0.90;;;0.90;;
19741;SDS011;10028;48.822;11.854;2023-05-07T14:57:40;0.90;;;0.90;;